Science Garden, Philippines

4:00 AM PHT on July 29, 2016 (GMT +0800)
Taft Avenue, Manila | | Change Station

Elev 276 ft 14.57 °N, 120.99 °E | Updated 25 seconds ago

Mostly Cloudy
Mostly Cloudy
82.4 °F
Feels Like 92 °F
N
0.0
Wind Variable Wind from North
Gusts 0.0 mph

Today
High -- | Low -- °F
--% Chance of Precip.
Yesterday
High -- | Low -- °F
Precip. -- in
Pressure 29.77 in
Visibility 6.2 miles
Clouds Scattered Clouds 2300 ft
Mostly Cloudy 9000 ft
Heat Index 92 °F
Dew Point 78 °F
Humidity 88%
Rainfall 0.00 in
Snow Depth Not available.
5:38 AM 6:26 PM
Waning Crescent, 29% visible
METAR RPLL 281900Z 20003KT 160V230 9999 SCT023 BKN090 27/27 Q1008 NOSIG RMK A2977
Pressure 29.77 in
Visibility 6.2 miles
Clouds Scattered Clouds 2300 ft
Mostly Cloudy 9000 ft
Heat Index 92 °F
Dew Point 78 °F
Humidity 88%
Rainfall 0.00 in
Snow Depth Not available.
5:38 AM 6:26 PM
Waning Crescent, 29% visible
METAR RPLL 281900Z 20003KT 160V230 9999 SCT023 BKN090 27/27 Q1008 NOSIG RMK A2977

10-Day Weather Forecast

No radar image for this location.
×

Almanac

Astronomy

Jul. 29, 2016 Rise Set
Actual Time
Civil Twilight
Nautical Twilight
Astronomical Twilight
Moon
Length of Visible Light
Length of Day
Tomorrow will be .
, % of the Moon is Illuminated

Today's Extremes

Country Highs Country Lows

Community

WunderPhotos

Upload Photos

1,928,194 photos uploaded!

WunderBlog® & News

Nearby

Air Quality

  Air Quality AQ Index Pollutant
Not available.

Snow Depth

Station Depth Elevation

Earthquake Activity

City Distance Mag. Time & Date
Minimum magnitude displayed is 2.5.

Coastal Water Temperatures

Place Temperature

Stations

Nearby Weather Stations

Station Location Temp. Windchill Dew Point Humidity Wind Precip. Elev Updated Type